Terminal Aerodrome Forecast
Issued by NWS

Home | Current Version | Previous Version | Text Only | Print | Product List | Glossary On
Versions: 1 2 3 4 5 6 7 8 9 10 11 12 13 14 15 16
000
FTUS46 KSEW 202300
TAFCLM
TAF
KCLM 202324Z 2100/2124 10003KT P6SM -RA SCT050 BKN080 OVC100
     FM210300 27009KT P6SM -RA OVC015
     FM211200 27016G24KT P6SM -RA OVC015
     FM211600 27014G22KT P6SM VCSH OVC025
     FM212100 28011KT P6SM VCSH OVC050=

USA.gov is the U.S. government's official web portal to all federal, state and local government web resources and services.